Time;durP1;ratioP1;P1;durP2;ratioP2;P2;SDS_P1;SDS_P2;PMS_P1;PMS_P2;Temp;Humidity;BMP_temperature;BMP_pressure;BME280_temperature;BME280_humidity;BME280_pressure;Samples;Min_cycle;Max_cycle;Signal;HPM_P1;HPM_P2
2021/11/23 00:00:43;;;;;;;16.13;6.67;;;1.90;99.90;;;;;;2621680;46;20022;31
2021/11/23 00:03:21;;;;;;;15.23;5.03;;;1.90;99.90;;;;;;2602532;54;20855;31
2021/11/23 00:06:02;;;;;;;7.10;3.65;;;1.80;99.90;;;;;;2603415;54;20026;31
2021/11/23 00:11:33;;;;;;;8.80;3.10;;;1.80;99.90;;;;;;2603201;54;20026;31
2021/11/23 00:14:12;;;;;;;7.32;3.00;;;1.80;99.90;;;;;;2603421;54;20908;31
2021/11/23 00:16:54;;;;;;;7.90;3.07;;;1.80;99.90;;;;;;2621756;46;20857;31
2021/11/23 00:19:30;;;;;;;7.50;3.25;;;1.80;99.90;;;;;;2603065;54;20031;31
2021/11/23 00:22:09;;;;;;;5.10;2.90;;;1.80;99.90;;;;;;2603111;54;20159;31
2021/11/23 00:24:45;;;;;;;7.83;3.57;;;1.80;99.90;;;;;;2603316;54;20759;31
2021/11/23 00:27:23;;;;;;;7.53;3.40;;;1.80;99.90;;;;;;2603187;54;20246;31
2021/11/23 00:30:01;;;;;;;14.50;6.30;;;1.90;99.90;;;;;;2621446;46;20779;31
2021/11/23 00:32:37;;;;;;;17.30;6.55;;;1.90;99.90;;;;;;2602453;54;20920;31
2021/11/23 00:35:14;;;;;;;7.37;3.20;;;1.90;99.90;;;;;;2603079;54;20103;31
2021/11/23 00:37:52;;;;;;;7.50;2.73;;;1.90;99.90;;;;;;2603099;54;20744;31
2021/11/23 00:40:26;;;;;;;6.50;3.40;;;1.90;99.90;;;;;;2603113;54;20251;31
2021/11/23 00:43:06;;;;;;;7.73;3.90;;;1.80;99.90;;;;;;2621273;46;20741;31
2021/11/23 00:45:42;;;;;;;7.13;3.17;;;1.80;99.90;;;;;;2621500;46;21080;31
2021/11/23 00:48:17;;;;;;;;;;;1.80;99.90;;;;;;2603197;54;20030;31
2021/11/23 00:50:54;;;;;;;7.47;2.93;;;1.80;99.90;;;;;;2617573;46;20004;31
2021/11/23 00:53:29;;;;;;;7.30;3.65;;;1.80;99.90;;;;;;2603195;54;20037;31
2021/11/23 00:56:08;;;;;;;9.73;3.27;;;1.80;99.90;;;;;;2602942;54;20894;31
2021/11/23 00:58:47;;;;;;;7.47;3.33;;;1.80;99.90;;;;;;2603002;54;20034;31
2021/11/23 01:01:22;;;;;;;5.65;2.92;;;1.80;99.90;;;;;;2603055;54;20057;31
2021/11/23 01:04:00;;;;;;;8.20;3.40;;;1.70;99.90;;;;;;2602374;54;20027;31
2021/11/23 01:06:37;;;;;;;7.80;3.30;;;1.70;99.90;;;;;;2602915;54;20902;31
2021/11/23 01:09:14;;;;;;;5.97;3.05;;;1.70;99.90;;;;;;2602262;54;20096;31
2021/11/23 01:11:50;;;;;;;7.47;3.50;;;1.70;99.90;;;;;;2602642;54;20026;31
2021/11/23 01:14:34;;;;;;;7.43;3.63;;;1.60;99.90;;;;;;2621472;46;20136;31
2021/11/23 01:17:18;;;;;;;7.30;3.30;;;1.60;99.90;;;;;;2602936;54;20022;31
2021/11/23 01:19:53;;;;;;;8.05;3.75;;;1.50;99.90;;;;;;2603265;54;20891;31
2021/11/23 01:22:30;;;;;;;8.05;3.50;;;1.50;99.90;;;;;;2621463;46;20026;31
2021/11/23 01:25:09;;;;;;;7.95;3.80;;;1.50;99.90;;;;;;2603076;54;20046;31
2021/11/23 01:27:46;;;;;;;7.72;3.67;;;1.40;99.90;;;;;;2603120;54;20865;31
2021/11/23 01:30:26;;;;;;;7.72;3.92;;;1.50;99.90;;;;;;2621100;46;20063;31
2021/11/23 01:33:02;;;;;;;8.70;3.30;;;1.40;99.90;;;;;;2603008;54;20035;31
2021/11/23 01:35:38;;;;;;;7.90;3.10;;;1.30;99.90;;;;;;2621427;46;20022;31
2021/11/23 01:38:16;;;;;;;5.90;3.05;;;1.30;99.90;;;;;;2602923;54;20113;31
2021/11/23 01:40:49;;;;;;;4.10;2.55;;;1.30;99.90;;;;;;2603158;54;22374;31
2021/11/23 01:43:29;;;;;;;4.35;2.40;;;1.30;99.90;;;;;;2603119;54;20064;31
2021/11/23 01:48:42;;;;;;;5.25;2.45;;;1.20;99.90;;;;;;2602975;54;20093;31
2021/11/23 01:51:19;;;;;;;6.45;2.90;;;1.20;99.90;;;;;;2603120;54;20030;31
2021/11/23 01:53:54;;;;;;;5.07;2.38;;;1.20;99.90;;;;;;2602960;54;20100;31
2021/11/23 01:56:30;;;;;;;8.10;3.20;;;1.10;99.90;;;;;;2602915;54;20809;31
2021/11/23 01:59:06;;;;;;;4.70;2.30;;;1.10;99.90;;;;;;2602956;54;20932;31
2021/11/23 02:01:42;;;;;;;7.93;2.63;;;1.10;99.90;;;;;;2621183;46;22691;31
2021/11/23 02:04:21;;;;;;;4.43;2.57;;;1.00;99.90;;;;;;2719839;39;22453;31
2021/11/23 02:06:57;;;;;;;4.75;2.75;;;1.00;99.90;;;;;;2602830;54;20073;31
2021/11/23 02:09:34;;;;;;;5.55;2.90;;;1.00;99.90;;;;;;2602961;54;20033;31
2021/11/23 02:12:11;;;;;;;7.28;3.33;;;0.90;99.90;;;;;;2602750;54;20095;31
2021/11/23 02:14:48;;;;;;;5.20;2.90;;;0.90;99.90;;;;;;2602828;54;20095;31
2021/11/23 02:17:24;;;;;;;4.90;2.67;;;0.80;99.90;;;;;;2603210;54;20796;31
2021/11/23 02:20:07;;;;;;;7.07;3.87;;;0.80;99.90;;;;;;2621384;46;20318;31
2021/11/23 02:22:43;;;;;;;5.65;3.00;;;0.80;99.90;;;;;;2602551;54;20101;31
2021/11/23 02:25:20;;;;;;;8.23;3.20;;;0.80;99.90;;;;;;2621316;46;20066;31
2021/11/23 02:27:56;;;;;;;6.45;2.95;;;0.70;99.90;;;;;;2617208;46;20892;31
2021/11/23 02:30:35;;;;;;;5.72;3.60;;;0.80;99.90;;;;;;2602216;54;20030;31
2021/11/23 02:33:10;;;;;;;6.07;3.17;;;0.70;99.90;;;;;;2601644;54;20034;31
2021/11/23 02:35:49;;;;;;;6.40;3.05;;;0.70;99.90;;;;;;2601509;54;20073;31
2021/11/23 02:38:27;;;;;;;7.60;3.17;;;0.70;99.90;;;;;;2709067;39;22449;31
2021/11/23 02:41:04;;;;;;;6.20;3.50;;;0.60;99.90;;;;;;2601649;54;20074;31
2021/11/23 02:43:39;;;;;;;6.40;3.17;;;0.60;99.90;;;;;;2612828;46;20041;31
2021/11/23 02:46:15;;;;;;;8.17;3.60;;;0.60;99.90;;;;;;2602880;54;20820;31
2021/11/23 02:48:52;;;;;;;8.05;3.72;;;0.60;99.90;;;;;;2602734;54;20054;31
2021/11/23 02:51:34;;;;;;;6.35;3.25;;;0.50;99.90;;;;;;2602834;54;20740;31
2021/11/23 02:54:12;;;;;;;8.30;3.65;;;0.50;99.90;;;;;;2602363;54;19954;31
2021/11/23 02:56:54;;;;;;;11.35;4.60;;;0.50;99.90;;;;;;2601984;54;20759;31
2021/11/23 02:59:30;;;;;;;12.57;5.78;;;0.50;99.90;;;;;;2602070;54;19965;31
2021/11/23 03:02:03;;;;;;;9.45;4.95;;;0.50;99.90;;;;;;2601995;54;21935;31
2021/11/23 03:04:41;;;;;;;10.17;5.63;;;0.50;99.90;;;;;;2619046;47;20034;31
2021/11/23 03:07:24;;;;;;;10.30;5.32;;;0.50;99.90;;;;;;2602731;54;19990;31
2021/11/23 03:09:59;;;;;;;12.43;4.95;;;0.50;99.90;;;;;;2602612;54;20894;31
2021/11/23 03:12:44;;;;;;;8.95;4.85;;;0.40;99.90;;;;;;2601826;54;20027;31
2021/11/23 03:15:21;;;;;;;13.03;4.37;;;0.40;99.90;;;;;;2602744;54;20736;31
2021/11/23 03:17:58;;;;;;;9.32;4.38;;;0.40;99.90;;;;;;2602609;54;20243;31
2021/11/23 03:20:36;;;;;;;8.07;4.38;;;0.40;99.90;;;;;;2621073;47;20037;31
2021/11/23 03:23:18;;;;;;;8.90;4.07;;;0.40;99.90;;;;;;2602761;54;20048;31
2021/11/23 03:25:54;;;;;;;11.23;4.32;;;0.40;99.90;;;;;;2602472;54;20140;31
2021/11/23 03:28:34;;;;;;;7.25;3.83;;;0.40;99.90;;;;;;2602557;54;20960;31
2021/11/23 03:31:13;;;;;;;7.38;4.03;;;0.30;99.90;;;;;;2602518;54;20049;31
2021/11/23 03:33:54;;;;;;;8.45;4.15;;;0.30;99.90;;;;;;2602587;54;20098;31
2021/11/23 03:36:28;;;;;;;7.20;3.53;;;0.30;99.90;;;;;;2603609;54;20793;31
2021/11/23 03:39:12;;;;;;;7.23;3.20;;;0.30;99.90;;;;;;2602749;54;20136;31
2021/11/23 03:41:47;;;;;;;7.28;3.95;;;0.30;99.90;;;;;;2603593;54;20031;31
2021/11/23 03:44:23;;;;;;;8.27;4.18;;;0.20;99.90;;;;;;2603261;54;20026;31
2021/11/23 03:47:00;;;;;;;9.80;5.30;;;0.20;99.90;;;;;;2603263;54;20085;31
2021/11/23 03:49:37;;;;;;;10.52;4.75;;;0.20;99.90;;;;;;2603345;54;20026;31
2021/11/23 03:52:14;;;;;;;9.03;5.60;;;0.20;99.90;;;;;;2603281;54;20031;31
2021/11/23 03:54:54;;;;;;;8.20;4.25;;;0.20;99.90;;;;;;2603399;54;20036;31
2021/11/23 04:00:03;;;;;;;10.30;4.88;;;0.10;99.90;;;;;;2603496;54;20112;31
2021/11/23 04:02:47;;;;;;;8.60;5.20;;;0.10;99.90;;;;;;2603362;54;20833;31
2021/11/23 04:05:23;;;;;;;8.38;4.40;;;0.10;99.90;;;;;;2603521;54;20053;31
2021/11/23 04:07:58;;;;;;;7.78;4.05;;;0.10;99.90;;;;;;2602649;54;20037;31
2021/11/23 04:10:36;;;;;;;8.27;4.68;;;0.10;99.90;;;;;;2603354;54;20037;31
2021/11/23 04:13:13;;;;;;;8.70;5.20;;;0.00;99.90;;;;;;2603242;54;20157;31
2021/11/23 04:15:47;;;;;;;9.85;5.15;;;0.00;99.90;;;;;;2621322;46;20052;31
2021/11/23 04:18:23;;;;;;;9.50;4.88;;;-0.10;99.90;;;;;;2603308;54;20037;31
2021/11/23 04:21:00;;;;;;;9.43;4.87;;;-0.10;99.90;;;;;;2603330;54;20026;31
2021/11/23 04:23:36;;;;;;;11.63;5.68;;;-0.10;99.90;;;;;;2603247;54;20030;31
2021/11/23 04:26:22;;;;;;;12.75;5.50;;;-0.10;99.90;;;;;;2603443;54;20854;31
2021/11/23 04:28:55;;;;;;;10.27;5.57;;;-0.10;99.90;;;;;;2603101;54;20027;31
2021/11/23 04:31:32;;;;;;;9.07;5.57;;;-0.10;99.90;;;;;;2621244;46;20023;31
2021/11/23 04:34:09;;;;;;;7.88;5.82;;;-0.10;99.90;;;;;;2602625;54;20026;31
2021/11/23 04:36:48;;;;;;;11.10;6.80;;;-0.10;99.90;;;;;;2602417;54;20041;31
2021/11/23 04:39:24;;;;;;;8.75;5.55;;;-0.20;99.90;;;;;;2603103;54;19934;31
2021/11/23 04:42:04;;;;;;;9.02;5.45;;;-0.20;99.90;;;;;;2603175;54;20941;31
2021/11/23 04:44:38;;;;;;;9.10;5.45;;;-0.20;99.90;;;;;;2701723;39;22351;31
2021/11/23 04:47:15;;;;;;;9.07;4.93;;;-0.20;99.90;;;;;;2602851;54;20762;31
2021/11/23 04:49:51;;;;;;;10.67;5.87;;;-0.20;99.90;;;;;;2621652;46;20053;31
2021/11/23 04:52:26;;;;;;;;;;;-0.20;99.90;;;;;;2603600;54;20030;31
2021/11/23 04:55:01;;;;;;;9.27;5.15;;;-0.30;99.90;;;;;;2602473;54;20013;31
2021/11/23 04:57:45;;;;;;;11.88;5.80;;;-0.30;99.90;;;;;;2602989;54;20554;31
2021/11/23 05:00:20;;;;;;;8.57;4.95;;;-0.30;99.90;;;;;;2603093;54;20026;31
2021/11/23 05:02:56;;;;;;;9.68;4.57;;;-0.30;99.90;;;;;;2603258;54;20887;31
2021/11/23 05:05:35;;;;;;;8.50;4.10;;;-0.30;99.90;;;;;;2603025;54;20915;31
2021/11/23 05:08:09;;;;;;;8.27;4.38;;;-0.30;99.90;;;;;;2603166;54;20093;31
2021/11/23 05:10:46;;;;;;;6.15;3.83;;;-0.30;99.90;;;;;;2602754;54;20030;31
2021/11/23 05:13:27;;;;;;;6.90;3.42;;;-0.30;99.90;;;;;;2603222;54;20931;31
2021/11/23 05:16:05;;;;;;;6.55;3.60;;;-0.30;99.90;;;;;;2603254;54;20851;31
2021/11/23 05:18:40;;;;;;;6.68;3.50;;;-0.30;99.90;;;;;;2621529;46;20064;31
2021/11/23 05:21:15;;;;;;;4.97;2.72;;;-0.30;99.90;;;;;;2773136;31;21184;31
2021/11/23 05:23:50;;;;;;;5.82;3.22;;;-0.30;99.90;;;;;;2620823;46;20049;31
2021/11/23 05:26:27;;;;;;;;;;;-0.30;99.90;;;;;;2603228;54;20112;31
2021/11/23 05:29:05;;;;;;;7.00;3.85;;;-0.30;99.90;;;;;;2602963;54;19961;31
2021/11/23 05:31:42;;;;;;;8.43;4.20;;;-0.30;99.90;;;;;;2621509;46;20026;31
2021/11/23 05:34:20;;;;;;;7.80;3.70;;;-0.30;99.90;;;;;;2603022;54;20026;31
2021/11/23 05:36:57;;;;;;;9.95;4.68;;;-0.30;99.90;;;;;;2621158;46;20085;31
2021/11/23 05:39:34;;;;;;;9.75;3.67;;;-0.40;99.90;;;;;;2602989;54;20899;31
2021/11/23 05:42:10;;;;;;;8.57;3.75;;;-0.30;99.90;;;;;;2603019;54;20038;31
2021/11/23 05:44:49;;;;;;;6.72;4.72;;;-0.30;99.90;;;;;;2603183;54;20175;31
2021/11/23 05:47:24;;;;;;;6.38;3.60;;;-0.30;99.90;;;;;;2602080;54;20056;31
2021/11/23 05:50:00;;;;;;;7.05;3.90;;;-0.30;99.90;;;;;;2701593;39;21411;31
2021/11/23 05:52:44;;;;;;;6.33;3.77;;;-0.30;99.90;;;;;;2602402;54;20060;31
2021/11/23 05:55:20;;;;;;;6.40;3.63;;;-0.30;99.90;;;;;;2602940;54;20242;31
2021/11/23 05:57:56;;;;;;;7.93;3.55;;;-0.30;99.90;;;;;;2602825;54;20045;31
2021/11/23 06:00:34;;;;;;;;;;;-0.20;99.90;;;;;;2603252;54;20756;31
2021/11/23 06:03:10;;;;;;;8.50;4.70;;;-0.30;99.90;;;;;;2621306;46;19989;31
2021/11/23 06:05:46;;;;;;;6.00;4.22;;;-0.30;99.90;;;;;;2602320;54;20027;31
2021/11/23 06:08:23;;;;;;;7.93;4.82;;;-0.40;99.90;;;;;;2602915;54;20773;31
2021/11/23 06:10:58;;;;;;;6.20;4.20;;;-0.30;99.90;;;;;;2602791;54;20027;31
2021/11/23 06:13:37;;;;;;;10.32;4.47;;;-0.30;99.90;;;;;;2602955;54;20773;31
2021/11/23 06:16:16;;;;;;;7.35;5.28;;;-0.40;99.90;;;;;;2602865;54;20893;31
2021/11/23 06:18:54;;;;;;;7.60;4.13;;;-0.40;99.90;;;;;;2603000;54;20855;31
2021/11/23 06:21:33;;;;;;;7.97;4.45;;;-0.40;99.90;;;;;;2621086;46;20343;31
2021/11/23 06:24:14;;;;;;;7.45;4.60;;;-0.40;99.90;;;;;;2603097;54;20050;31
2021/11/23 06:26:50;;;;;;;8.50;3.67;;;-0.40;99.90;;;;;;2602974;54;20833;31
2021/11/23 06:29:24;;;;;;;6.60;4.22;;;-0.40;99.90;;;;;;2701332;39;22397;31
2021/11/23 06:32:03;;;;;;;6.10;3.97;;;-0.40;99.90;;;;;;2602635;54;20033;31
2021/11/23 06:34:42;;;;;;;7.63;4.05;;;-0.40;99.90;;;;;;2620749;46;20026;31
2021/11/23 06:39:56;;;;;;;3.92;2.42;;;-0.40;99.90;;;;;;2603160;54;20042;31
2021/11/23 06:42:32;;;;;;;6.63;3.33;;;-0.40;99.90;;;;;;2602743;54;20833;31
2021/11/23 06:45:11;;;;;;;6.03;3.67;;;-0.40;99.90;;;;;;2621105;46;20883;31
2021/11/23 06:47:50;;;;;;;6.50;3.97;;;-0.40;99.90;;;;;;2621304;46;20743;31
2021/11/23 06:50:32;;;;;;;9.75;3.50;;;-0.30;99.90;;;;;;2602957;54;20120;31
2021/11/23 06:53:06;;;;;;;12.93;3.72;;;-0.30;99.90;;;;;;2603029;54;20115;31
2021/11/23 06:55:42;;;;;;;11.27;4.07;;;-0.30;99.90;;;;;;2772542;31;21433;31
2021/11/23 06:58:15;;;;;;;6.90;4.25;;;-0.20;99.90;;;;;;2621042;47;22402;31
2021/11/23 07:00:53;;;;;;;10.90;3.60;;;-0.20;99.90;;;;;;2602850;54;20022;31
2021/11/23 07:03:32;;;;;;;8.40;3.90;;;-0.20;99.90;;;;;;2602563;54;20916;31
2021/11/23 07:06:10;;;;;;;9.43;4.43;;;-0.20;99.90;;;;;;2602510;54;19942;31
2021/11/23 07:08:49;;;;;;;7.60;3.88;;;-0.10;99.90;;;;;;2603028;54;20739;31
2021/11/23 07:11:28;;;;;;;11.15;3.45;;;0.10;99.90;;;;;;2606666;46;20048;31
2021/11/23 07:16:51;;;;;;;9.82;3.10;;;1.40;99.90;;;;;;2603442;54;19942;31
2021/11/23 07:19:31;;;;;;;6.60;3.30;;;2.30;99.90;;;;;;2603227;54;20035;31
2021/11/23 07:22:06;;;;;;;10.57;3.65;;;3.00;99.90;;;;;;2603395;54;20120;31
2021/11/23 07:24:45;;;;;;;12.70;4.28;;;3.60;99.90;;;;;;2603465;54;20026;31
2021/11/23 07:27:22;;;;;;;9.15;4.10;;;4.10;99.90;;;;;;2603522;54;20745;31
2021/11/23 07:29:59;;;;;;;;;;;4.70;99.90;;;;;;2603733;54;20857;31
2021/11/23 07:32:37;;;;;;;10.60;4.43;;;5.30;99.90;;;;;;2602757;54;19964;31
2021/11/23 07:35:19;;;;;;;12.77;4.17;;;5.80;99.90;;;;;;2603479;54;20769;31
2021/11/23 07:38:06;;;;;;;12.20;5.07;;;6.30;99.90;;;;;;2603352;54;20262;31
2021/11/23 07:40:47;;;;;;;11.43;5.38;;;6.80;99.90;;;;;;2603325;54;20758;31
2021/11/23 07:46:16;;;;;;;11.70;4.45;;;7.50;99.90;;;;;;2603416;54;20903;31
2021/11/23 07:51:46;;;;;;;12.50;3.75;;;8.00;99.90;;;;;;2622010;46;20056;31
2021/11/23 07:54:44;;;;;;;11.88;3.85;;;8.00;99.90;;;;;;2621913;46;20026;31
2021/11/23 07:57:22;;;;;;;9.57;3.75;;;8.10;99.90;;;;;;2603523;54;20093;31
2021/11/23 08:00:01;;;;;;;;;;;8.20;99.90;;;;;;2622168;46;20872;31
2021/11/23 08:02:48;;;;;;;10.00;3.53;;;8.10;99.90;;;;;;2603599;54;20648;31
2021/11/23 08:05:26;;;;;;;7.82;3.05;;;8.20;99.90;;;;;;2603200;54;20864;31
2021/11/23 08:08:18;;;;;;;8.32;3.38;;;8.70;99.90;;;;;;2622070;46;20081;31
2021/11/23 08:10:58;;;;;;;7.50;3.40;;;8.80;99.90;;;;;;2603453;54;20029;31
2021/11/23 08:13:39;;;;;;;11.00;4.35;;;8.90;99.90;;;;;;2603366;54;20058;31
2021/11/23 08:16:31;;;;;;;10.20;4.70;;;8.90;99.90;;;;;;2603613;54;20834;31
2021/11/23 08:19:08;;;;;;;11.80;4.97;;;9.00;99.90;;;;;;2621860;46;20034;31
2021/11/23 08:21:46;;;;;;;11.40;4.80;;;9.00;99.90;;;;;;2603497;54;20818;31
2021/11/23 08:24:21;;;;;;;8.83;4.20;;;9.20;99.90;;;;;;2603467;54;20082;31
2021/11/23 08:27:00;;;;;;;6.95;3.65;;;9.30;99.90;;;;;;2621796;46;20030;31
2021/11/23 08:29:37;;;;;;;6.00;3.23;;;9.20;99.90;;;;;;2621983;46;20022;31
2021/11/23 08:32:17;;;;;;;5.33;2.93;;;9.30;99.90;;;;;;2603457;54;20060;31
2021/11/23 08:34:53;;;;;;;8.27;3.17;;;9.40;99.90;;;;;;2603488;54;20856;31
2021/11/23 08:37:39;;;;;;;6.78;2.70;;;9.30;99.90;;;;;;2622033;46;20891;31
2021/11/23 08:40:16;;;;;;;6.18;2.70;;;9.00;99.90;;;;;;2603421;54;20038;31
2021/11/23 08:42:58;;;;;;;5.55;3.50;;;8.60;99.90;;;;;;2603595;54;20085;31
2021/11/23 08:45:37;;;;;;;5.90;2.90;;;8.30;99.90;;;;;;2602584;54;20034;31
2021/11/23 08:48:15;;;;;;;7.05;3.05;;;7.90;99.90;;;;;;2603386;54;20026;31
2021/11/23 08:53:43;;;;;;;7.70;3.17;;;7.40;99.90;;;;;;2603224;54;20892;31
2021/11/23 08:56:29;;;;;;;10.02;4.97;;;7.20;99.90;;;;;;2621948;46;20054;31
2021/11/23 08:59:20;;;;;;;102.40;66.97;;;7.00;99.90;;;;;;2603181;54;20022;31
2021/11/23 09:01:57;;;;;;;21.00;13.40;;;6.80;99.90;;;;;;2603490;54;20802;31
2021/11/23 09:07:45;;;;;;;14.55;7.90;;;6.50;99.90;;;;;;2621727;46;20029;31
2021/11/23 09:10:41;;;;;;;9.57;4.90;;;6.40;99.90;;;;;;2603205;54;20027;31
2021/11/23 09:13:23;;;;;;;11.52;6.40;;;6.30;99.90;;;;;;2603387;54;20030;31
2021/11/23 09:16:04;;;;;;;8.02;4.97;;;6.30;99.90;;;;;;2621328;46;20918;31
2021/11/23 09:18:44;;;;;;;12.93;7.00;;;6.10;99.90;;;;;;2603070;54;20038;31
2021/11/23 09:21:26;;;;;;;15.60;9.73;;;6.00;99.90;;;;;;2603284;54;20035;31
2021/11/23 09:24:15;;;;;;;9.07;5.65;;;6.00;99.90;;;;;;2621649;46;20053;31
2021/11/23 09:26:51;;;;;;;9.52;4.43;;;5.90;99.90;;;;;;2603039;54;20872;31
2021/11/23 09:29:26;;;;;;;9.35;5.15;;;5.90;99.90;;;;;;2621416;46;20030;31
2021/11/23 09:32:07;;;;;;;8.85;4.70;;;5.80;99.90;;;;;;2602744;54;20211;31
2021/11/23 09:34:53;;;;;;;16.02;11.57;;;5.80;99.90;;;;;;2602970;54;20049;31
2021/11/23 09:37:32;;;;;;;12.88;5.00;;;5.70;99.90;;;;;;2602317;54;20770;31
2021/11/23 09:40:19;;;;;;;26.67;15.57;;;5.70;99.90;;;;;;2603016;54;19956;31
2021/11/23 09:43:05;;;;;;;13.65;7.55;;;5.60;99.90;;;;;;2602837;54;20022;31
2021/11/23 09:45:53;;;;;;;10.20;7.07;;;5.60;99.90;;;;;;2602971;54;20026;31
2021/11/23 09:48:37;;;;;;;10.70;4.55;;;5.60;99.90;;;;;;2621383;46;20912;31
2021/11/23 09:51:22;;;;;;;8.55;4.93;;;5.60;99.90;;;;;;2603028;54;20022;31
2021/11/23 09:54:01;;;;;;;13.15;6.20;;;5.50;99.90;;;;;;2602967;54;20030;31
2021/11/23 09:56:37;;;;;;;11.20;4.95;;;5.50;99.90;;;;;;2621224;46;20041;31
2021/11/23 09:59:24;;;;;;;10.90;5.07;;;5.40;99.90;;;;;;2602820;54;20736;31
2021/11/23 10:02:01;;;;;;;10.55;4.53;;;5.40;99.90;;;;;;2602735;54;20030;31
2021/11/23 10:05:09;;;;;;;9.27;6.20;;;5.40;99.90;;;;;;2602984;54;20085;31
2021/11/23 10:07:46;;;;;;;17.03;4.97;;;5.40;99.90;;;;;;2602765;54;20042;31
2021/11/23 10:10:59;;;;;;;11.15;4.57;;;5.40;99.90;;;;;;2602722;54;20829;31
2021/11/23 10:13:44;;;;;;;11.23;4.93;;;5.40;99.90;;;;;;2602760;54;20029;31
2021/11/23 10:19:42;;;;;;;15.53;4.87;;;5.40;99.90;;;;;;2620992;46;20069;31
2021/11/23 10:22:48;;;;;;;7.63;4.10;;;5.40;99.90;;;;;;2606629;46;20140;31
2021/11/23 10:25:35;;;;;;;12.53;4.70;;;5.40;99.90;;;;;;2602918;54;20836;31
2021/11/23 10:28:21;;;;;;;13.90;4.60;;;5.40;99.90;;;;;;2602633;54;25129;31
2021/11/23 10:30:59;;;;;;;13.18;5.50;;;5.30;99.90;;;;;;2602999;54;19934;31
2021/11/23 10:33:38;;;;;;;9.60;4.50;;;5.30;99.90;;;;;;2602835;54;20052;31
2021/11/23 10:36:28;;;;;;;10.65;4.80;;;5.30;99.90;;;;;;2602874;54;20956;31
2021/11/23 10:39:17;;;;;;;12.40;5.05;;;5.40;99.90;;;;;;2602638;54;20022;31
2021/11/23 10:41:55;;;;;;;11.95;4.50;;;5.30;99.90;;;;;;2621390;46;20033;31
2021/11/23 10:44:58;;;;;;;12.27;4.57;;;5.20;99.90;;;;;;2621035;46;20074;31
2021/11/23 10:47:49;;;;;;;10.32;4.03;;;5.30;99.90;;;;;;2602550;54;20852;31
2021/11/23 10:50:28;;;;;;;15.45;4.72;;;5.20;99.90;;;;;;2602861;54;19964;31
2021/11/23 10:53:13;;;;;;;10.23;4.00;;;5.20;99.90;;;;;;2602842;54;20851;31
2021/11/23 10:56:08;;;;;;;7.65;4.13;;;5.10;99.90;;;;;;2602538;54;20259;31
2021/11/23 10:58:54;;;;;;;7.07;3.38;;;5.10;99.90;;;;;;2602649;54;20023;31
2021/11/23 11:01:33;;;;;;;10.32;3.88;;;5.10;99.90;;;;;;2602666;54;20812;31
2021/11/23 11:04:11;;;;;;;8.70;3.50;;;5.10;99.90;;;;;;2612940;47;20031;31
2021/11/23 11:06:55;;;;;;;12.23;3.50;;;5.20;99.90;;;;;;2618651;47;20089;31
2021/11/23 11:09:34;;;;;;;11.27;3.20;;;5.20;99.90;;;;;;2602780;54;20030;31
2021/11/23 11:12:16;;;;;;;7.20;3.67;;;5.20;99.90;;;;;;2602673;54;20769;31
2021/11/23 11:14:58;;;;;;;8.35;3.40;;;5.20;99.90;;;;;;2602566;54;19971;31
2021/11/23 11:17:37;;;;;;;11.20;3.70;;;5.10;99.90;;;;;;2602480;54;20841;31
2021/11/23 11:20:25;;;;;;;9.65;4.70;;;5.20;99.90;;;;;;2621236;47;20863;31
2021/11/23 11:23:07;;;;;;;11.63;3.97;;;5.20;99.90;;;;;;2602634;54;20030;31
2021/11/23 11:26:03;;;;;;;8.35;3.33;;;5.20;99.90;;;;;;2620844;47;20045;31
2021/11/23 11:29:02;;;;;;;8.80;4.85;;;5.20;99.90;;;;;;2602345;54;20023;31
2021/11/23 11:37:22;;;;;;;8.18;3.58;;;5.30;99.90;;;;;;2602423;54;20053;31
2021/11/23 11:40:04;;;;;;;6.20;3.63;;;5.30;99.90;;;;;;2602318;54;20033;31
2021/11/23 11:43:10;;;;;;;6.67;4.00;;;5.30;99.90;;;;;;2602554;54;20884;31
2021/11/23 11:46:01;;;;;;;7.43;3.80;;;5.20;99.90;;;;;;2602395;54;20237;31
2021/11/23 11:48:57;;;;;;;8.13;4.20;;;5.20;99.90;;;;;;2602386;54;20780;31
2021/11/23 11:51:40;;;;;;;7.17;3.83;;;5.10;99.90;;;;;;2602606;54;20730;31
2021/11/23 11:54:22;;;;;;;7.80;4.60;;;5.10;99.90;;;;;;2602394;54;20305;31
2021/11/23 11:57:00;;;;;;;8.85;3.40;;;5.10;99.90;;;;;;2621572;47;20157;31
2021/11/23 11:59:36;;;;;;;8.02;3.90;;;5.10;99.90;;;;;;2603407;54;20903;31
2021/11/23 12:02:24;;;;;;;8.45;3.95;;;5.00;99.90;;;;;;2603257;54;20042;31
2021/11/23 12:05:04;;;;;;;9.70;4.00;;;5.00;99.90;;;;;;2603286;54;20030;31
2021/11/23 12:07:46;;;;;;;7.80;3.60;;;5.00;99.90;;;;;;2603157;54;20058;31
2021/11/23 12:10:28;;;;;;;8.35;4.35;;;5.00;99.90;;;;;;2603393;54;20747;31
2021/11/23 12:13:18;;;;;;;8.47;4.13;;;4.90;99.90;;;;;;2621700;46;20030;31
2021/11/23 12:16:02;;;;;;;14.80;4.55;;;4.90;99.90;;;;;;2603336;54;20031;31
2021/11/23 12:21:19;;;;;;;;;;;4.90;99.90;;;;;;2603768;54;20052;31
2021/11/23 12:23:58;;;;;;;9.35;4.90;;;4.90;99.90;;;;;;2603416;54;22284;31
2021/11/23 12:26:34;;;;;;;9.65;5.15;;;4.90;99.90;;;;;;2701934;39;22369;31
2021/11/23 12:29:12;;;;;;;10.50;5.07;;;4.90;99.90;;;;;;2603117;54;20083;31
2021/11/23 12:31:51;;;;;;;7.35;4.82;;;4.90;99.90;;;;;;2603268;54;20762;31
2021/11/23 12:34:29;;;;;;;6.47;5.03;;;4.90;99.90;;;;;;2621491;46;20026;31
2021/11/23 12:37:13;;;;;;;8.93;5.50;;;4.80;99.90;;;;;;2621608;46;20879;31
2021/11/23 12:39:56;;;;;;;7.53;5.63;;;4.90;99.90;;;;;;2603274;54;20030;31
2021/11/23 12:42:51;;;;;;;7.18;5.97;;;4.90;99.90;;;;;;2603470;54;20944;31
2021/11/23 12:45:40;;;;;;;8.35;6.25;;;4.80;99.90;;;;;;2603146;54;20879;31
2021/11/23 12:48:17;;;;;;;10.38;6.05;;;4.80;99.90;;;;;;2603263;54;20856;31
2021/11/23 12:50:51;;;;;;;;;;;4.80;99.90;;;;;;2603573;54;20810;31
2021/11/23 12:53:33;;;;;;;11.57;5.65;;;4.80;99.90;;;;;;2603371;54;19934;31
2021/11/23 12:56:16;;;;;;;9.32;6.47;;;4.90;99.90;;;;;;2603222;54;20030;31
2021/11/23 13:01:29;;;;;;;8.90;6.47;;;4.90;99.90;;;;;;2603291;54;20026;31
2021/11/23 13:04:10;;;;;;;8.40;5.78;;;4.90;99.90;;;;;;2603047;54;20117;31
2021/11/23 13:06:49;;;;;;;13.13;6.00;;;4.90;99.90;;;;;;2602885;54;20898;31
2021/11/23 13:09:29;;;;;;;9.27;5.53;;;4.90;99.90;;;;;;2602879;54;20085;31
2021/11/23 13:12:06;;;;;;;10.57;6.63;;;4.90;99.90;;;;;;2603123;54;20092;31
2021/11/23 13:14:57;;;;;;;11.03;6.67;;;4.90;99.90;;;;;;2602948;54;20037;31
2021/11/23 13:17:42;;;;;;;10.90;6.43;;;4.90;99.90;;;;;;2603240;54;20027;31
2021/11/23 13:20:25;;;;;;;13.02;6.32;;;5.00;99.90;;;;;;2602991;54;20793;31
2021/11/23 13:23:02;;;;;;;9.50;6.60;;;5.00;99.90;;;;;;2602954;54;20891;31
2021/11/23 13:25:46;;;;;;;11.35;6.10;;;5.00;99.90;;;;;;2602943;54;19942;31
2021/11/23 13:30:57;;;;;;;12.32;6.43;;;5.00;99.90;;;;;;2621474;46;20027;31
2021/11/23 13:33:37;;;;;;;7.25;5.93;;;5.10;99.90;;;;;;2603022;54;20902;31
2021/11/23 13:36:17;;;;;;;6.93;5.40;;;5.00;99.90;;;;;;2603000;54;20087;31
2021/11/23 13:38:53;;;;;;;10.27;6.18;;;5.00;99.90;;;;;;2602982;54;20027;31
2021/11/23 13:41:34;;;;;;;9.25;5.93;;;5.10;99.90;;;;;;2602958;54;20094;31
2021/11/23 13:44:10;;;;;;;7.50;5.22;;;5.00;99.90;;;;;;2603112;54;20038;31
2021/11/23 13:46:49;;;;;;;9.25;5.47;;;5.00;99.90;;;;;;2602901;54;20026;31
2021/11/23 13:49:27;;;;;;;8.80;5.25;;;5.00;99.90;;;;;;2602847;54;20042;31
2021/11/23 13:52:12;;;;;;;7.75;5.20;;;5.00;99.90;;;;;;2621451;46;20022;31
2021/11/23 13:54:50;;;;;;;8.60;5.20;;;5.00;99.90;;;;;;2602940;54;20871;31
2021/11/23 13:57:50;;;;;;;7.70;4.75;;;5.00;99.90;;;;;;2603008;54;20038;31
2021/11/23 14:00:28;;;;;;;8.48;5.80;;;5.00;99.90;;;;;;2602758;54;20859;31
2021/11/23 14:03:11;;;;;;;9.00;5.65;;;5.00;99.90;;;;;;2603057;54;20678;31
2021/11/23 14:05:51;;;;;;;9.65;5.47;;;5.00;99.90;;;;;;2602961;54;20030;31
2021/11/23 14:08:34;;;;;;;12.20;7.30;;;5.00;99.90;;;;;;2603079;54;20027;31
2021/11/23 14:11:14;;;;;;;9.43;6.38;;;5.10;99.90;;;;;;2621206;46;20945;31
2021/11/23 14:14:02;;;;;;;11.02;6.22;;;5.10;99.90;;;;;;2621390;46;20034;31
2021/11/23 14:16:37;;;;;;;11.85;6.20;;;5.10;99.90;;;;;;2602971;54;20031;31
2021/11/23 14:19:18;;;;;;;10.25;6.45;;;5.00;99.90;;;;;;2602301;54;20144;31
2021/11/23 14:21:58;;;;;;;14.77;7.72;;;5.00;99.90;;;;;;2621042;46;20034;31
2021/11/23 14:24:34;;;;;;;9.00;6.00;;;5.00;99.90;;;;;;2603066;54;20128;31
2021/11/23 14:27:12;;;;;;;10.32;6.25;;;5.00;99.90;;;;;;2602506;54;20022;31
2021/11/23 14:29:52;;;;;;;9.48;6.35;;;5.00;99.90;;;;;;2602897;54;20026;31
2021/11/23 14:32:30;;;;;;;10.25;6.90;;;5.00;99.90;;;;;;2603124;54;20033;31
2021/11/23 14:35:09;;;;;;;13.95;7.63;;;5.00;99.90;;;;;;2602011;54;20935;31
2021/11/23 14:37:47;;;;;;;13.73;8.27;;;4.90;99.90;;;;;;2602881;54;22392;31
2021/11/23 14:40:34;;;;;;;;;;;;;;;;;;;;;
2021/11/23 14:43:10;;;;;;;10.45;7.75;;;4.90;99.90;;;;;;2602728;54;20067;31
2021/11/23 14:45:52;;;;;;;10.25;7.30;;;4.90;99.90;;;;;;2602953;54;20030;31
2021/11/23 14:48:28;;;;;;;14.43;8.90;;;4.90;99.90;;;;;;2620634;46;20105;31
2021/11/23 14:51:23;;;;;;;12.82;9.45;;;4.90;99.90;;;;;;2602541;54;20082;31
2021/11/23 14:54:03;;;;;;;13.80;9.25;;;4.80;99.90;;;;;;2602843;54;20082;31